createdAt,value
2023-01-08T00:01:12.182Z,100251.75
2023-01-08T00:03:40.214Z,100251.88
2023-01-08T00:06:13.084Z,100256.28
2023-01-08T00:08:41.261Z,100266.03
2023-01-08T00:11:09.346Z,100257.31
2023-01-08T00:13:37.445Z,100261.75
2023-01-08T00:16:08.574Z,100257.44
2023-01-08T00:18:36.550Z,100261.00
2023-01-08T00:21:05.171Z,100257.56
2023-01-08T00:23:33.330Z,100257.56
2023-01-08T00:26:03.780Z,100255.84
2023-01-08T00:28:31.616Z,100238.38
2023-01-08T00:31:01.451Z,100243.63
2023-01-08T00:33:30.095Z,100242.81
2023-01-08T00:35:57.617Z,100238.47
2023-01-08T00:38:29.856Z,100239.34
2023-01-08T00:40:57.496Z,100233.16
2023-01-08T00:43:25.024Z,100234.00
2023-01-08T00:45:53.969Z,100224.38
2023-01-08T00:48:22.668Z,100221.69
2023-01-08T00:50:50.677Z,100217.22
2023-01-08T00:53:21.191Z,100224.22
2023-01-08T00:55:49.006Z,100223.28
2023-01-08T00:58:16.924Z,100219.75
2023-01-08T01:00:44.329Z,100213.59
2023-01-08T01:03:11.795Z,100208.31
2023-01-08T01:05:39.316Z,100214.47
2023-01-08T01:08:06.727Z,100200.44
2023-01-08T01:10:34.189Z,100203.06
2023-01-08T01:13:01.699Z,100203.06
2023-01-08T01:15:29.239Z,100199.59
2023-01-08T01:17:56.788Z,100199.56
2023-01-08T01:20:24.902Z,100189.03
2023-01-08T01:22:52.416Z,100187.22
2023-01-08T01:25:19.942Z,100202.13
2023-01-08T01:27:47.423Z,100194.16
2023-01-08T01:30:17.622Z,100188.06
2023-01-08T01:32:45.059Z,100188.91
2023-01-08T01:35:12.496Z,100196.78
2023-01-08T01:37:39.925Z,100194.16
2023-01-08T01:40:08.010Z,100190.69
2023-01-08T01:42:41.257Z,100174.94
2023-01-08T01:45:31.284Z,100176.66
2023-01-08T01:48:10.154Z,100190.69
2023-01-08T01:50:51.627Z,100187.22
2023-01-08T01:53:29.531Z,100190.75
2023-01-08T01:55:58.899Z,100190.75
2023-01-08T01:58:30.283Z,100187.22
2023-01-08T02:01:03.099Z,100186.28
2023-01-08T02:03:36.796Z,100197.59
2023-01-08T02:06:28.455Z,100201.97
2023-01-08T02:09:25.727Z,100190.50
2023-01-08T02:12:19.296Z,100209.84
2023-01-08T02:15:24.102Z,100204.47
2023-01-08T02:18:26.796Z,100203.72
2023-01-08T02:21:11.194Z,100206.63
2023-01-08T02:23:49.348Z,100219.19
2023-01-08T02:26:25.391Z,100216.19
2023-01-08T02:29:07.210Z,100212.53
2023-01-08T02:31:38.315Z,100197.53
2023-01-08T02:34:05.870Z,100202.31
2023-01-08T02:36:45.442Z,100193.00
2023-01-08T02:39:35.739Z,100187.22
2023-01-08T02:42:15.268Z,100189.19
2023-01-08T02:45:16.507Z,100175.47
2023-01-08T02:47:55.571Z,100172.25
2023-01-08T02:50:38.755Z,100161.94
2023-01-08T02:53:27.451Z,100160.25
2023-01-08T02:56:11.212Z,100156.03
2023-01-08T02:58:41.531Z,100153.47
2023-01-08T03:01:13.072Z,100152.75
2023-01-08T03:03:46.861Z,100159.78
2023-01-08T03:06:19.200Z,100163.34
2023-01-08T03:08:51.736Z,100166.91
2023-01-08T03:11:23.610Z,100169.69
2023-01-08T03:14:03.993Z,100170.56
2023-01-08T03:16:41.250Z,100156.78
2023-01-08T03:19:19.532Z,100162.06
2023-01-08T03:21:48.968Z,100164.69
2023-01-08T03:24:23.053Z,100156.81
2023-01-08T03:26:57.568Z,100152.50
2023-01-08T03:29:27.591Z,100153.34
2023-01-08T03:32:03.500Z,100161.19
2023-01-08T03:34:33.724Z,100154.25
2023-01-08T03:37:07.628Z,100146.41
2023-01-08T03:39:51.548Z,100145.47
2023-01-08T03:42:21.479Z,100155.13
2023-01-08T03:44:49.078Z,100167.38
2023-01-08T03:47:20.596Z,100156.00
2023-01-08T03:49:52.963Z,100151.69
2023-01-08T03:52:25.610Z,100145.63
2023-01-08T03:54:53.128Z,100143.09
2023-01-08T03:57:20.763Z,100140.47
2023-01-08T03:59:48.274Z,100133.53
2023-01-08T04:02:16.712Z,100130.09
2023-01-08T04:04:44.339Z,100140.56
2023-01-08T04:07:12.648Z,100127.50
2023-01-08T04:09:40.222Z,100124.88
2023-01-08T04:12:07.759Z,100131.91
2023-01-08T04:14:35.148Z,100123.22
2023-01-08T04:17:02.764Z,100122.31
2023-01-08T04:19:30.227Z,100124.13
2023-01-08T04:21:57.660Z,100124.94
2023-01-08T04:24:25.101Z,100120.56
2023-01-08T04:26:52.486Z,100117.94
2023-01-08T04:29:19.907Z,100105.69
2023-01-08T04:31:47.340Z,100106.56
2023-01-08T04:34:14.775Z,100105.66
2023-01-08T04:36:42.140Z,100102.16
2023-01-08T04:39:11.365Z,100105.66
2023-01-08T04:41:38.839Z,100101.28
2023-01-08T04:44:06.602Z,100078.53
2023-01-08T04:46:34.403Z,100079.38
2023-01-08T04:49:02.152Z,100089.88
2023-01-08T04:51:29.573Z,100079.38
2023-01-08T04:53:57.583Z,100086.41
2023-01-08T04:56:25.026Z,100081.16
2023-01-08T04:58:52.616Z,100067.22
2023-01-08T05:01:26.176Z,100067.22
2023-01-08T05:03:57.006Z,100055.00
2023-01-08T05:06:26.206Z,100067.22
2023-01-08T05:08:53.822Z,100077.69
2023-01-08T05:11:21.773Z,100088.06
2023-01-08T05:13:50.946Z,100086.25
2023-01-08T05:16:18.751Z,100075.72
2023-01-08T05:18:46.338Z,100069.53
2023-01-08T05:21:14.245Z,100073.88
2023-01-08T05:23:47.628Z,100075.56
2023-01-08T05:26:16.845Z,100086.06
2023-01-08T05:28:44.365Z,100086.97
2023-01-08T05:31:12.378Z,100086.06
2023-01-08T05:33:40.242Z,100083.50
2023-01-08T05:36:10.668Z,100082.63
2023-01-08T05:38:39.136Z,100075.69
2023-01-08T05:41:08.194Z,100075.69
2023-01-08T05:43:36.694Z,100078.31
2023-01-08T05:46:05.251Z,100065.16
2023-01-08T05:48:35.578Z,100073.88
2023-01-08T05:51:03.896Z,100067.72
2023-01-08T05:53:33.143Z,100064.25
2023-01-08T05:56:09.346Z,100058.97
2023-01-08T05:58:38.488Z,100065.06
2023-01-08T06:01:16.312Z,100058.84
2023-01-08T06:03:43.880Z,100059.69
2023-01-08T06:06:12.949Z,100048.31
2023-01-08T06:08:40.409Z,100045.72
2023-01-08T06:11:11.952Z,100050.94
2023-01-08T06:13:43.695Z,100057.03
2023-01-08T06:16:12.408Z,100066.72
2023-01-08T06:18:40.596Z,100066.75
2023-01-08T06:21:08.079Z,100074.69
2023-01-08T06:23:35.646Z,100080.81
2023-01-08T06:26:05.909Z,100087.88
2023-01-08T06:28:33.904Z,100096.72
2023-01-08T06:31:03.188Z,100096.84
2023-01-08T06:33:33.737Z,100102.22
2023-01-08T06:36:04.522Z,100101.50
2023-01-08T06:38:36.627Z,100100.78
2023-01-08T06:41:06.994Z,100096.59
2023-01-08T06:43:36.321Z,100099.38
2023-01-08T06:46:06.400Z,100103.00
2023-01-08T06:48:34.207Z,100105.75
2023-01-08T06:51:03.320Z,100115.53
2023-01-08T06:53:31.583Z,100108.66
2023-01-08T06:55:59.271Z,100118.41
2023-01-08T06:58:27.958Z,100115.94
2023-01-08T07:00:55.433Z,100110.81
2023-01-08T07:03:22.968Z,100111.78
2023-01-08T07:05:50.819Z,100108.47
2023-01-08T07:08:19.044Z,100105.91
2023-01-08T07:10:46.653Z,100121.75
2023-01-08T07:13:14.892Z,100119.25
2023-01-08T07:15:43.228Z,100112.34
2023-01-08T07:18:12.364Z,100110.72
2023-01-08T07:20:40.390Z,100115.16
2023-01-08T07:23:11.962Z,100113.53
2023-01-08T07:25:40.080Z,100113.59
2023-01-08T07:28:13.000Z,100110.16
2023-01-08T07:30:40.582Z,100120.72
2023-01-08T07:33:08.309Z,100119.03
2023-01-08T07:35:35.781Z,100105.19
2023-01-08T07:38:03.259Z,100113.91
2023-01-08T07:40:31.746Z,100107.09
2023-01-08T07:43:01.619Z,100110.63
2023-01-08T07:45:30.538Z,100113.34
2023-01-08T07:47:59.010Z,100116.84
2023-01-08T07:50:27.951Z,100111.66
2023-01-08T07:53:02.172Z,100114.31
2023-01-08T07:55:30.974Z,100108.25
2023-01-08T07:57:58.892Z,100123.16
2023-01-08T08:00:26.975Z,100117.06
2023-01-08T08:02:54.502Z,100121.50
2023-01-08T08:05:22.066Z,100119.84
2023-01-08T08:07:49.464Z,100115.56
2023-01-08T08:10:16.983Z,100111.25
2023-01-08T08:12:45.423Z,100114.81
2023-01-08T08:15:12.984Z,100113.13
2023-01-08T08:17:40.423Z,100103.53
2023-01-08T08:20:08.637Z,100107.94
2023-01-08T08:22:36.082Z,100101.84
2023-01-08T08:25:03.946Z,100093.19
2023-01-08T08:27:31.373Z,100094.88
2023-01-08T08:29:58.854Z,100076.59
2023-01-08T08:32:26.355Z,100078.31
2023-01-08T08:34:53.777Z,100092.22
2023-01-08T08:37:21.205Z,100077.31
2023-01-08T08:39:48.658Z,100079.00
2023-01-08T08:42:16.073Z,100076.28
2023-01-08T08:44:43.803Z,100071.84
2023-01-08T08:47:11.313Z,100071.69
2023-01-08T08:49:38.801Z,100075.94
2023-01-08T08:52:06.396Z,100074.03
2023-01-08T08:54:33.870Z,100083.47
2023-01-08T08:57:01.296Z,100077.25
2023-01-08T08:59:28.726Z,100068.44
2023-01-08T09:01:56.602Z,100061.38
2023-01-08T09:04:24.097Z,100065.63
2023-01-08T09:06:52.286Z,100056.00
2023-01-08T09:09:19.950Z,100055.06
2023-01-08T09:11:47.354Z,100052.44
2023-01-08T09:14:14.951Z,100052.41
2023-01-08T09:16:42.403Z,100052.38
2023-01-08T09:19:10.322Z,100048.84
2023-01-08T09:21:38.102Z,100055.84
2023-01-08T09:24:06.805Z,100059.31
2023-01-08T09:26:34.301Z,100062.81
2023-01-08T09:29:02.008Z,100066.28
2023-01-08T09:31:29.478Z,100067.97
2023-01-08T09:33:56.964Z,100063.63
2023-01-08T09:36:24.474Z,100060.06
2023-01-08T09:38:51.964Z,100048.69
2023-01-08T09:41:35.061Z,100052.06
2023-01-08T09:44:06.891Z,100053.72
2023-01-08T09:46:36.370Z,100049.28
2023-01-08T09:49:15.668Z,100055.25
2023-01-08T09:51:43.383Z,100045.53
2023-01-08T09:54:16.683Z,100042.75
2023-01-08T09:56:44.990Z,100036.53
2023-01-08T09:59:18.507Z,100038.97
2023-01-08T10:01:47.777Z,100034.50
2023-01-08T10:04:27.045Z,100039.59
2023-01-08T10:07:00.280Z,100035.16
2023-01-08T10:09:31.475Z,100034.25
2023-01-08T10:12:04.489Z,100029.84
2023-01-08T10:14:48.059Z,100029.72
2023-01-08T10:17:40.630Z,100027.88
2023-01-08T10:20:16.980Z,100026.06
2023-01-08T10:22:44.953Z,100016.38
2023-01-08T10:25:18.058Z,100012.81
2023-01-08T10:27:52.964Z,100017.97
2023-01-08T10:30:36.080Z,100004.72
2023-01-08T10:33:11.812Z,100012.44
2023-01-08T10:35:42.661Z,100008.75
2023-01-08T10:38:32.766Z,100002.47
2023-01-08T10:41:05.577Z,100002.31
2023-01-08T10:43:48.937Z,99989.94
2023-01-08T10:46:30.273Z,99988.06
2023-01-08T10:49:01.327Z,99977.41
2023-01-08T10:51:32.059Z,99979.94
2023-01-08T10:54:28.295Z,99976.34
2023-01-08T10:56:55.856Z,99971.91
2023-01-08T10:59:24.730Z,99966.56
2023-01-08T11:01:57.310Z,99966.47
2023-01-08T11:04:35.767Z,99962.88
2023-01-08T11:07:07.246Z,99951.53
2023-01-08T11:09:47.735Z,99952.31
2023-01-08T11:12:40.581Z,99950.28
2023-01-08T11:15:31.534Z,99950.78
2023-01-08T11:18:20.310Z,99943.50
2023-01-08T11:20:49.777Z,99943.19
2023-01-08T11:23:24.831Z,99938.28
2023-01-08T11:26:03.539Z,99933.50
2023-01-08T11:28:47.619Z,99926.88
2023-01-08T11:31:28.983Z,99925.66
2023-01-08T11:34:07.725Z,99919.28
2023-01-08T11:36:55.218Z,99919.19
2023-01-08T11:39:22.907Z,99909.50
2023-01-08T11:42:14.487Z,99900.59
2023-01-08T11:45:15.751Z,99903.03
2023-01-08T11:48:29.238Z,99899.38
2023-01-08T11:51:07.269Z,99886.91
2023-01-08T11:53:54.812Z,99885.81
2023-01-08T11:57:04.096Z,99883.13
2023-01-08T12:00:03.710Z,99876.84
2023-01-08T12:02:54.176Z,99887.34
2023-01-08T12:05:50.048Z,99879.38
2023-01-08T12:08:36.036Z,99875.81
2023-01-08T12:11:47.346Z,99885.13
2023-01-08T12:14:39.222Z,99871.94
2023-01-08T12:17:39.625Z,99878.72
2023-01-08T12:20:43.658Z,99870.75
2023-01-08T12:23:47.889Z,99878.78
2023-01-08T12:27:13.563Z,99866.28
2023-01-08T12:30:41.979Z,99865.38
2023-01-08T12:33:24.003Z,99860.19
2023-01-08T12:35:57.700Z,99851.38
2023-01-08T12:38:38.062Z,99854.03
2023-01-08T12:41:11.486Z,99851.31
2023-01-08T12:44:02.872Z,99847.88
2023-01-08T12:46:38.144Z,99847.09
2023-01-08T12:49:07.983Z,99844.41
2023-01-08T12:52:08.374Z,99846.19
2023-01-08T12:55:30.354Z,99840.25
2023-01-08T12:58:19.271Z,99850.13
2023-01-08T13:01:07.529Z,99836.06
2023-01-08T13:03:36.168Z,99833.56
2023-01-08T13:06:19.305Z,99831.84
2023-01-08T13:08:53.987Z,99830.00
2023-01-08T13:11:42.280Z,99822.66
2023-01-08T13:14:12.311Z,99825.03
2023-01-08T13:16:44.626Z,99824.97
2023-01-08T13:19:27.327Z,99829.38
2023-01-08T13:21:58.175Z,99813.41
2023-01-08T13:24:37.399Z,99821.19
2023-01-08T13:27:17.242Z,99816.03
2023-01-08T13:29:47.324Z,99809.16
2023-01-08T13:32:26.476Z,99797.84
2023-01-08T13:35:25.318Z,99799.81
2023-01-08T13:38:07.769Z,99792.97
2023-01-08T13:40:44.225Z,99784.19
2023-01-08T13:43:40.151Z,99778.78
2023-01-08T13:46:41.031Z,99769.00
2023-01-08T13:49:26.842Z,99782.09
2023-01-08T13:51:54.577Z,99779.25
2023-01-08T13:54:35.433Z,99763.28
2023-01-08T13:57:18.024Z,99764.97
2023-01-08T13:59:55.339Z,99769.34
2023-01-08T14:02:44.548Z,99763.47
2023-01-08T14:05:30.724Z,99780.44
2023-01-08T14:07:59.055Z,99767.56
2023-01-08T14:10:29.453Z,99772.81
2023-01-08T14:13:08.775Z,99766.69
2023-01-08T14:15:39.165Z,99764.06
2023-01-08T14:18:07.101Z,99756.28
2023-01-08T14:20:40.292Z,99764.00
2023-01-08T14:23:27.283Z,99760.34
2023-01-08T14:25:55.414Z,99752.44
2023-01-08T14:28:23.478Z,99753.19
2023-01-08T14:30:56.682Z,99740.03
2023-01-08T14:33:33.345Z,99741.88
2023-01-08T14:36:04.564Z,99740.31
2023-01-08T14:38:32.173Z,99731.75
2023-01-08T14:41:14.607Z,99726.50
2023-01-08T14:43:49.769Z,99731.13
2023-01-08T14:46:27.034Z,99726.84
2023-01-08T14:48:56.490Z,99713.91
2023-01-08T14:51:30.963Z,99717.53
2023-01-08T14:54:09.486Z,99706.28
2023-01-08T14:56:37.151Z,99703.88
2023-01-08T14:59:11.657Z,99702.19
2023-01-08T15:01:39.799Z,99704.00
2023-01-08T15:04:17.346Z,99704.13
2023-01-08T15:06:45.774Z,99695.53
2023-01-08T15:09:32.956Z,99691.31
2023-01-08T15:12:07.459Z,99693.31
2023-01-08T15:14:36.810Z,99693.56
2023-01-08T15:17:16.501Z,99696.38
2023-01-08T15:19:53.209Z,99687.91
2023-01-08T15:22:25.970Z,99678.53
2023-01-08T15:25:02.338Z,99683.03
2023-01-08T15:27:36.992Z,99683.25
2023-01-08T15:30:09.254Z,99669.44
2023-01-08T15:32:39.074Z,99673.13
2023-01-08T15:35:18.677Z,99672.38
2023-01-08T15:37:46.468Z,99663.06
2023-01-08T15:40:14.228Z,99669.34
2023-01-08T15:43:03.039Z,99664.31
2023-01-08T15:45:34.369Z,99666.25
2023-01-08T15:48:02.120Z,99664.72
2023-01-08T15:50:36.515Z,99671.78
2023-01-08T15:53:08.244Z,99666.69
2023-01-08T15:55:36.420Z,99670.56
2023-01-08T15:58:03.894Z,99671.59
2023-01-08T16:00:32.883Z,99663.84
2023-01-08T16:03:00.421Z,99666.66
2023-01-08T16:05:29.841Z,99671.94
2023-01-08T16:07:57.270Z,99679.09
2023-01-08T16:10:25.754Z,99676.59
2023-01-08T16:12:53.247Z,99667.09
2023-01-08T16:15:21.040Z,99668.84
2023-01-08T16:17:48.642Z,99667.13
2023-01-08T16:20:16.965Z,99669.81
2023-01-08T16:22:44.978Z,99661.28
2023-01-08T16:25:13.055Z,99663.06
2023-01-08T16:27:41.138Z,99659.63
2023-01-08T16:30:17.124Z,99657.97
2023-01-08T16:32:46.598Z,99667.66
2023-01-08T16:35:14.121Z,99661.56
2023-01-08T16:37:41.533Z,99659.88
2023-01-08T16:40:09.953Z,99654.75
2023-01-08T16:42:37.682Z,99662.75
2023-01-08T16:45:06.144Z,99662.84
2023-01-08T16:47:38.623Z,99654.97
2023-01-08T16:50:07.875Z,99659.41
2023-01-08T16:52:38.917Z,99658.53
2023-01-08T16:55:07.234Z,99652.44
2023-01-08T16:57:34.651Z,99642.81
2023-01-08T17:00:02.430Z,99648.00
2023-01-08T17:02:30.258Z,99650.53
2023-01-08T17:04:57.743Z,99644.41
2023-01-08T17:07:25.179Z,99644.41
2023-01-08T17:09:52.597Z,99639.16
2023-01-08T17:12:22.526Z,99640.00
2023-01-08T17:14:50.792Z,99626.97
2023-01-08T17:17:18.407Z,99624.34
2023-01-08T17:19:46.723Z,99623.31
2023-01-08T17:22:14.257Z,99621.56
2023-01-08T17:24:41.899Z,99605.72
2023-01-08T17:27:11.334Z,99611.78
2023-01-08T17:29:39.615Z,99608.25
2023-01-08T17:32:07.109Z,99600.31
2023-01-08T17:34:34.747Z,99594.28
2023-01-08T17:37:02.149Z,99597.00
2023-01-08T17:39:29.741Z,99590.03
2023-01-08T17:42:15.680Z,99592.81
2023-01-08T17:44:43.302Z,99582.56
2023-01-08T17:47:12.136Z,99581.03
2023-01-08T17:49:39.875Z,99578.63
2023-01-08T17:52:09.744Z,99576.28
2023-01-08T17:54:40.845Z,99574.78
2023-01-08T17:57:08.787Z,99576.75
2023-01-08T17:59:36.475Z,99569.13
2023-01-08T18:02:06.607Z,99559.78
2023-01-08T18:04:34.501Z,99565.22
2023-01-08T18:07:02.401Z,99559.34
2023-01-08T18:09:29.810Z,99549.09
2023-01-08T18:11:57.619Z,99547.50
2023-01-08T18:14:25.729Z,99549.41
2023-01-08T18:16:53.768Z,99552.16
2023-01-08T18:19:21.631Z,99549.66
2023-01-08T18:21:49.224Z,99545.47
2023-01-08T18:24:16.707Z,99542.09
2023-01-08T18:26:46.572Z,99542.22
2023-01-08T18:29:14.090Z,99537.91
2023-01-08T18:31:43.826Z,99541.47
2023-01-08T18:34:15.057Z,99543.28
2023-01-08T18:36:43.215Z,99544.25
2023-01-08T18:39:14.546Z,99540.75
2023-01-08T18:42:00.962Z,99532.19
2023-01-08T18:44:28.491Z,99522.66
2023-01-08T18:46:56.192Z,99526.19
2023-01-08T18:49:24.487Z,99515.78
2023-01-08T18:51:51.891Z,99508.00
2023-01-08T18:54:19.441Z,99507.19
2023-01-08T18:56:47.952Z,99509.81
2023-01-08T18:59:15.455Z,99499.34
2023-01-08T19:01:45.510Z,99502.88
2023-01-08T19:04:18.340Z,99503.72
2023-01-08T19:06:46.554Z,99502.03
2023-01-08T19:09:15.773Z,99493.31
2023-01-08T19:11:43.762Z,99496.00
2023-01-08T19:14:12.971Z,99478.66
2023-01-08T19:16:43.296Z,99467.47
2023-01-08T19:19:10.740Z,99475.44
2023-01-08T19:21:38.329Z,99476.38
2023-01-08T19:24:06.282Z,99470.34
2023-01-08T19:26:33.752Z,99470.34
2023-01-08T19:29:02.494Z,99466.88
2023-01-08T19:31:31.129Z,99463.47
2023-01-08T19:34:00.009Z,99460.84
2023-01-08T19:36:28.431Z,99457.31
2023-01-08T19:38:56.195Z,99456.34
2023-01-08T19:41:42.209Z,99437.97
2023-01-08T19:44:09.867Z,99434.41
2023-01-08T19:46:37.474Z,99432.56
2023-01-08T19:49:05.753Z,99432.50
2023-01-08T19:51:36.321Z,99431.53
2023-01-08T19:54:03.855Z,99428.88
2023-01-08T19:56:31.385Z,99434.84
2023-01-08T19:58:59.301Z,99426.94
2023-01-08T20:01:28.204Z,99420.81
2023-01-08T20:03:56.614Z,99413.81
2023-01-08T20:06:26.496Z,99406.81
2023-01-08T20:08:58.551Z,99412.81
2023-01-08T20:11:27.657Z,99400.69
2023-01-08T20:14:02.366Z,99396.28
2023-01-08T20:16:30.327Z,99399.69
2023-01-08T20:19:04.373Z,99394.41
2023-01-08T20:21:34.067Z,99392.66
2023-01-08T20:24:08.510Z,99391.75
2023-01-08T20:26:37.879Z,99380.31
2023-01-08T20:29:06.465Z,99381.97
2023-01-08T20:31:35.089Z,99379.28
2023-01-08T20:34:10.629Z,99374.81
2023-01-08T20:36:41.223Z,99377.34
2023-01-08T20:39:15.017Z,99366.72
2023-01-08T20:41:50.265Z,99357.06
2023-01-08T20:44:28.820Z,99364.75
2023-01-08T20:46:56.287Z,99343.78
2023-01-08T20:49:26.373Z,99356.72
2023-01-08T20:51:59.049Z,99354.09
2023-01-08T20:54:30.090Z,99334.91
2023-01-08T20:57:01.312Z,99340.13
2023-01-08T20:59:29.637Z,99346.22
2023-01-08T21:01:57.800Z,99344.44
2023-01-08T21:04:25.922Z,99337.47
2023-01-08T21:06:53.518Z,99342.59
2023-01-08T21:09:21.193Z,99332.09
2023-01-08T21:11:48.778Z,99327.69
2023-01-08T21:14:16.312Z,99323.41
2023-01-08T21:16:43.916Z,99322.56
2023-01-08T21:19:11.646Z,99317.38
2023-01-08T21:21:40.771Z,99306.91
2023-01-08T21:24:12.298Z,99312.13
2023-01-08T21:26:40.212Z,99318.28
2023-01-08T21:29:09.232Z,99306.97
2023-01-08T21:31:39.229Z,99297.34
2023-01-08T21:34:08.945Z,99294.72
2023-01-08T21:36:41.200Z,99300.75
2023-01-08T21:39:11.060Z,99297.22
2023-01-08T21:41:57.128Z,99295.47
2023-01-08T21:44:44.277Z,99288.44
2023-01-08T21:47:18.043Z,99280.59
2023-01-08T21:49:46.680Z,99274.47
2023-01-08T21:52:33.656Z,99269.25
2023-01-08T21:55:02.362Z,99271.00
2023-01-08T21:57:29.867Z,99257.00
2023-01-08T21:59:57.580Z,99249.09
2023-01-08T22:02:25.492Z,99257.78
2023-01-08T22:04:57.015Z,99252.50
2023-01-08T22:07:25.580Z,99253.41
2023-01-08T22:09:53.445Z,99259.41
2023-01-08T22:12:23.275Z,99247.25
2023-01-08T22:14:53.989Z,99235.81
2023-01-08T22:17:24.995Z,99224.56
2023-01-08T22:19:53.461Z,99233.25
2023-01-08T22:22:21.047Z,99227.13
2023-01-08T22:24:49.949Z,99212.19
2023-01-08T22:27:20.505Z,99215.59
2023-01-08T22:29:48.879Z,99219.91
2023-01-08T22:32:16.597Z,99209.38
2023-01-08T22:34:44.253Z,99217.19
2023-01-08T22:37:11.738Z,99227.59
2023-01-08T22:39:39.373Z,99221.41
2023-01-08T22:42:06.939Z,99228.44
2023-01-08T22:44:34.559Z,99234.44
2023-01-08T22:47:02.966Z,99241.47
2023-01-08T22:49:30.689Z,99240.59
2023-01-08T22:51:59.113Z,99232.69
2023-01-08T22:54:27.669Z,99229.16
2023-01-08T22:56:55.674Z,99232.63
2023-01-08T22:59:24.289Z,99242.16
2023-01-08T23:01:53.255Z,99241.25
2023-01-08T23:04:22.460Z,99237.72
2023-01-08T23:06:51.279Z,99235.88
2023-01-08T23:09:18.781Z,99235.03
2023-01-08T23:11:46.238Z,99244.50
2023-01-08T23:14:16.165Z,99234.91
2023-01-08T23:16:43.930Z,99247.06
2023-01-08T23:19:12.465Z,99244.47
2023-01-08T23:21:40.675Z,99247.06
2023-01-08T23:24:12.773Z,99248.72
2023-01-08T23:26:44.003Z,99259.19
2023-01-08T23:29:12.611Z,99279.22
2023-01-08T23:31:44.438Z,99283.66
2023-01-08T23:34:13.443Z,99281.25
2023-01-08T23:36:42.996Z,99278.00
2023-01-08T23:39:11.655Z,99272.19
2023-01-08T23:41:39.212Z,99280.25
2023-01-08T23:44:12.042Z,99278.72
2023-01-08T23:46:39.795Z,99292.78
2023-01-08T23:49:07.738Z,99289.44
2023-01-08T23:51:35.378Z,99291.31
2023-01-08T23:54:03.524Z,99290.59
2023-01-08T23:56:31.524Z,99290.66
2023-01-08T23:58:59.103Z,99292.50
